Edmore, North Dakota
Current Conditions -  °F | °C
As of 1:55 AM on Friday 19 Dec 2014 (Local Time) from KD55 Reporting Station
Haze Haze  
Wind Chill: 11°   Ceiling: 100
Heat Index: 23°   Visibility: 1.5mi
Dew Point: 19°   Wind: 13mph
Humidity: 86%   Direction: 180°S
Pressure: 30.01"   Gusts: NA
Location:  48.41°N, 98.45°W
Report Text: KD55 190755Z AUTO 18011KT 1 1/2SM BR OVC001 M05/M07 A3001 RMK AO2
Loading
Personal Weather Stations






























Interactive Weather Map New forecast layout! Learn more

10-Day Weather Forecast

Advertisements
Track Severe Weather on mobile